sensor_id;sensor_type;location;lat;lon;timestamp;temperature;humidity
37806;DHT22;25082;50.870;0.022;2023-06-14T00:01:50;23.00;56.70
37806;DHT22;25082;50.870;0.022;2023-06-14T00:04:16;22.90;56.70
37806;DHT22;25082;50.870;0.022;2023-06-14T00:06:43;22.90;56.70
37806;DHT22;25082;50.870;0.022;2023-06-14T00:09:11;22.90;56.70
37806;DHT22;25082;50.870;0.022;2023-06-14T00:11:40;22.90;56.70
37806;DHT22;25082;50.870;0.022;2023-06-14T00:14:06;22.90;56.60
37806;DHT22;25082;50.870;0.022;2023-06-14T00:16:32;22.90;56.60
37806;DHT22;25082;50.870;0.022;2023-06-14T00:19:02;22.90;56.60
37806;DHT22;25082;50.870;0.022;2023-06-14T00:21:29;22.80;56.60
37806;DHT22;25082;50.870;0.022;2023-06-14T00:23:56;22.90;56.60
37806;DHT22;25082;50.870;0.022;2023-06-14T00:26:22;22.90;56.60
37806;DHT22;25082;50.870;0.022;2023-06-14T00:28:48;22.90;57.20
37806;DHT22;25082;50.870;0.022;2023-06-14T00:31:14;22.80;56.60
37806;DHT22;25082;50.870;0.022;2023-06-14T00:33:40;22.80;56.60
37806;DHT22;25082;50.870;0.022;2023-06-14T00:36:06;22.80;56.60
37806;DHT22;25082;50.870;0.022;2023-06-14T00:38:31;22.80;56.60
37806;DHT22;25082;50.870;0.022;2023-06-14T00:40:57;22.80;56.60
37806;DHT22;25082;50.870;0.022;2023-06-14T00:43:23;22.80;56.60
37806;DHT22;25082;50.870;0.022;2023-06-14T00:45:48;22.80;56.60
37806;DHT22;25082;50.870;0.022;2023-06-14T00:48:17;22.80;56.50
37806;DHT22;25082;50.870;0.022;2023-06-14T00:50:43;22.80;56.50
37806;DHT22;25082;50.870;0.022;2023-06-14T00:53:11;22.80;56.50
37806;DHT22;25082;50.870;0.022;2023-06-14T00:55:38;22.80;56.60
37806;DHT22;25082;50.870;0.022;2023-06-14T00:58:05;22.80;56.60
37806;DHT22;25082;50.870;0.022;2023-06-14T01:00:31;22.80;56.50
37806;DHT22;25082;50.870;0.022;2023-06-14T01:02:56;22.80;56.50
37806;DHT22;25082;50.870;0.022;2023-06-14T01:05:23;22.80;56.60
37806;DHT22;25082;50.870;0.022;2023-06-14T01:08:22;22.80;56.50
37806;DHT22;25082;50.870;0.022;2023-06-14T01:10:56;22.80;56.50
37806;DHT22;25082;50.870;0.022;2023-06-14T01:13:38;22.80;56.50
37806;DHT22;25082;50.870;0.022;2023-06-14T01:16:06;22.80;56.50
37806;DHT22;25082;50.870;0.022;2023-06-14T01:18:34;22.70;56.40
37806;DHT22;25082;50.870;0.022;2023-06-14T01:21:00;22.70;56.40
37806;DHT22;25082;50.870;0.022;2023-06-14T01:23:31;22.70;56.40
37806;DHT22;25082;50.870;0.022;2023-06-14T01:25:59;22.70;56.40
37806;DHT22;25082;50.870;0.022;2023-06-14T01:28:27;22.70;56.80
37806;DHT22;25082;50.870;0.022;2023-06-14T01:31:00;22.70;56.40
37806;DHT22;25082;50.870;0.022;2023-06-14T01:33:29;22.70;57.00
37806;DHT22;25082;50.870;0.022;2023-06-14T01:35:56;22.70;56.50
37806;DHT22;25082;50.870;0.022;2023-06-14T01:38:24;22.70;56.50
37806;DHT22;25082;50.870;0.022;2023-06-14T01:40:51;22.70;56.40
37806;DHT22;25082;50.870;0.022;2023-06-14T01:43:18;22.70;56.40
37806;DHT22;25082;50.870;0.022;2023-06-14T01:45:47;22.70;56.40
37806;DHT22;25082;50.870;0.022;2023-06-14T01:48:14;22.70;56.50
37806;DHT22;25082;50.870;0.022;2023-06-14T01:50:41;22.70;56.40
37806;DHT22;25082;50.870;0.022;2023-06-14T01:53:10;22.70;56.40
37806;DHT22;25082;50.870;0.022;2023-06-14T01:55:36;22.70;56.50
37806;DHT22;25082;50.870;0.022;2023-06-14T01:58:09;22.60;56.40
37806;DHT22;25082;50.870;0.022;2023-06-14T02:00:35;22.60;56.30
37806;DHT22;25082;50.870;0.022;2023-06-14T02:03:01;22.60;56.30
37806;DHT22;25082;50.870;0.022;2023-06-14T02:05:27;22.60;56.40
37806;DHT22;25082;50.870;0.022;2023-06-14T02:07:53;22.60;56.40
37806;DHT22;25082;50.870;0.022;2023-06-14T02:10:20;22.60;56.50
37806;DHT22;25082;50.870;0.022;2023-06-14T02:12:46;22.60;56.40
37806;DHT22;25082;50.870;0.022;2023-06-14T02:15:11;22.60;56.40
37806;DHT22;25082;50.870;0.022;2023-06-14T02:17:47;22.60;56.40
37806;DHT22;25082;50.870;0.022;2023-06-14T02:20:15;22.60;56.40
37806;DHT22;25082;50.870;0.022;2023-06-14T02:22:41;22.60;56.50
37806;DHT22;25082;50.870;0.022;2023-06-14T02:25:07;22.60;56.50
37806;DHT22;25082;50.870;0.022;2023-06-14T02:27:33;22.60;56.40
37806;DHT22;25082;50.870;0.022;2023-06-14T02:29:59;22.60;56.50
37806;DHT22;25082;50.870;0.022;2023-06-14T02:32:26;22.60;56.50
37806;DHT22;25082;50.870;0.022;2023-06-14T02:34:53;22.60;56.50
37806;DHT22;25082;50.870;0.022;2023-06-14T02:37:19;22.60;56.60
37806;DHT22;25082;50.870;0.022;2023-06-14T02:39:45;22.60;56.60
37806;DHT22;25082;50.870;0.022;2023-06-14T02:42:11;22.50;56.50
37806;DHT22;25082;50.870;0.022;2023-06-14T02:44:36;22.50;56.50
37806;DHT22;25082;50.870;0.022;2023-06-14T02:47:03;22.50;56.60
37806;DHT22;25082;50.870;0.022;2023-06-14T02:49:29;22.50;56.60
37806;DHT22;25082;50.870;0.022;2023-06-14T02:51:55;22.50;56.60
37806;DHT22;25082;50.870;0.022;2023-06-14T02:54:21;22.50;56.60
37806;DHT22;25082;50.870;0.022;2023-06-14T02:56:47;22.50;56.60
37806;DHT22;25082;50.870;0.022;2023-06-14T02:59:12;22.50;56.60
37806;DHT22;25082;50.870;0.022;2023-06-14T03:01:39;22.50;56.70
37806;DHT22;25082;50.870;0.022;2023-06-14T03:04:07;22.50;56.70
37806;DHT22;25082;50.870;0.022;2023-06-14T03:06:33;22.50;56.80
37806;DHT22;25082;50.870;0.022;2023-06-14T03:09:00;22.50;56.80
37806;DHT22;25082;50.870;0.022;2023-06-14T03:11:29;22.50;56.80
37806;DHT22;25082;50.870;0.022;2023-06-14T03:13:55;22.50;56.80
37806;DHT22;25082;50.870;0.022;2023-06-14T03:16:22;22.50;56.90
37806;DHT22;25082;50.870;0.022;2023-06-14T03:18:51;22.50;56.90
37806;DHT22;25082;50.870;0.022;2023-06-14T03:21:17;22.50;56.90
37806;DHT22;25082;50.870;0.022;2023-06-14T03:23:43;22.50;56.90
37806;DHT22;25082;50.870;0.022;2023-06-14T03:26:10;22.50;56.90
37806;DHT22;25082;50.870;0.022;2023-06-14T03:28:40;22.50;57.00
37806;DHT22;25082;50.870;0.022;2023-06-14T03:31:07;22.40;56.90
37806;DHT22;25082;50.870;0.022;2023-06-14T03:33:34;22.50;57.00
37806;DHT22;25082;50.870;0.022;2023-06-14T03:36:00;22.40;56.90
37806;DHT22;25082;50.870;0.022;2023-06-14T03:38:25;22.40;56.90
37806;DHT22;25082;50.870;0.022;2023-06-14T03:40:51;22.40;57.00
37806;DHT22;25082;50.870;0.022;2023-06-14T03:43:17;22.40;57.00
37806;DHT22;25082;50.870;0.022;2023-06-14T03:45:43;22.40;57.00
37806;DHT22;25082;50.870;0.022;2023-06-14T03:48:09;22.40;57.00
37806;DHT22;25082;50.870;0.022;2023-06-14T03:50:35;22.40;57.00
37806;DHT22;25082;50.870;0.022;2023-06-14T03:53:03;22.40;57.00
37806;DHT22;25082;50.870;0.022;2023-06-14T03:55:29;22.30;57.00
37806;DHT22;25082;50.870;0.022;2023-06-14T03:57:57;22.40;57.10
37806;DHT22;25082;50.870;0.022;2023-06-14T04:00:22;22.30;57.60
37806;DHT22;25082;50.870;0.022;2023-06-14T04:02:48;22.30;57.00
37806;DHT22;25082;50.870;0.022;2023-06-14T04:05:15;22.40;57.10
37806;DHT22;25082;50.870;0.022;2023-06-14T04:07:42;22.30;57.10
37806;DHT22;25082;50.870;0.022;2023-06-14T04:10:13;22.30;57.10
37806;DHT22;25082;50.870;0.022;2023-06-14T04:12:39;22.40;57.20
37806;DHT22;25082;50.870;0.022;2023-06-14T04:15:06;22.30;57.20
37806;DHT22;25082;50.870;0.022;2023-06-14T04:17:32;22.30;57.20
37806;DHT22;25082;50.870;0.022;2023-06-14T04:20:02;22.30;57.20
37806;DHT22;25082;50.870;0.022;2023-06-14T04:22:29;22.30;57.90
37806;DHT22;25082;50.870;0.022;2023-06-14T04:24:56;22.30;57.30
37806;DHT22;25082;50.870;0.022;2023-06-14T04:27:23;22.30;57.40
37806;DHT22;25082;50.870;0.022;2023-06-14T04:29:53;22.30;57.40
37806;DHT22;25082;50.870;0.022;2023-06-14T04:32:26;22.30;57.40
37806;DHT22;25082;50.870;0.022;2023-06-14T04:34:58;22.30;57.40
37806;DHT22;25082;50.870;0.022;2023-06-14T04:37:25;22.30;57.50
37806;DHT22;25082;50.870;0.022;2023-06-14T04:39:54;22.30;57.50
37806;DHT22;25082;50.870;0.022;2023-06-14T04:42:21;22.30;57.60
37806;DHT22;25082;50.870;0.022;2023-06-14T04:44:50;22.20;57.50
37806;DHT22;25082;50.870;0.022;2023-06-14T04:47:17;22.30;57.60
37806;DHT22;25082;50.870;0.022;2023-06-14T04:49:43;22.20;57.60
37806;DHT22;25082;50.870;0.022;2023-06-14T04:52:10;22.30;57.70
37806;DHT22;25082;50.870;0.022;2023-06-14T04:54:38;22.20;57.60
37806;DHT22;25082;50.870;0.022;2023-06-14T04:57:07;22.20;57.70
37806;DHT22;25082;50.870;0.022;2023-06-14T04:59:34;22.20;57.70
37806;DHT22;25082;50.870;0.022;2023-06-14T05:02:01;22.20;57.70
37806;DHT22;25082;50.870;0.022;2023-06-14T05:04:27;22.20;57.70
37806;DHT22;25082;50.870;0.022;2023-06-14T05:06:54;22.20;57.70
37806;DHT22;25082;50.870;0.022;2023-06-14T05:09:23;22.20;57.70
37806;DHT22;25082;50.870;0.022;2023-06-14T05:11:48;22.20;57.70
37806;DHT22;25082;50.870;0.022;2023-06-14T05:14:16;22.20;57.80
37806;DHT22;25082;50.870;0.022;2023-06-14T05:16:41;22.20;57.80
37806;DHT22;25082;50.870;0.022;2023-06-14T05:19:08;22.20;57.80
37806;DHT22;25082;50.870;0.022;2023-06-14T05:21:36;22.20;57.80
37806;DHT22;25082;50.870;0.022;2023-06-14T05:24:03;22.20;57.90
37806;DHT22;25082;50.870;0.022;2023-06-14T05:26:28;22.20;57.90
37806;DHT22;25082;50.870;0.022;2023-06-14T05:28:58;22.20;58.00
37806;DHT22;25082;50.870;0.022;2023-06-14T05:31:25;22.10;57.90
37806;DHT22;25082;50.870;0.022;2023-06-14T05:33:52;22.10;57.90
37806;DHT22;25082;50.870;0.022;2023-06-14T05:36:18;22.10;58.00
37806;DHT22;25082;50.870;0.022;2023-06-14T05:38:45;22.20;58.00
37806;DHT22;25082;50.870;0.022;2023-06-14T05:41:11;22.10;58.00
37806;DHT22;25082;50.870;0.022;2023-06-14T05:43:36;22.10;58.00
37806;DHT22;25082;50.870;0.022;2023-06-14T05:46:02;22.10;58.00
37806;DHT22;25082;50.870;0.022;2023-06-14T05:48:28;22.10;58.10
37806;DHT22;25082;50.870;0.022;2023-06-14T05:50:55;22.10;58.10
37806;DHT22;25082;50.870;0.022;2023-06-14T05:53:20;22.10;58.10
37806;DHT22;25082;50.870;0.022;2023-06-14T05:55:46;22.10;58.10
37806;DHT22;25082;50.870;0.022;2023-06-14T05:58:12;22.10;58.20
37806;DHT22;25082;50.870;0.022;2023-06-14T06:00:39;22.10;58.20
37806;DHT22;25082;50.870;0.022;2023-06-14T06:03:05;22.10;58.30
37806;DHT22;25082;50.870;0.022;2023-06-14T06:05:34;22.10;58.30
37806;DHT22;25082;50.870;0.022;2023-06-14T06:08:00;22.10;58.30
37806;DHT22;25082;50.870;0.022;2023-06-14T06:10:26;22.10;58.30
37806;DHT22;25082;50.870;0.022;2023-06-14T06:12:51;22.10;58.40
37806;DHT22;25082;50.870;0.022;2023-06-14T06:15:17;22.10;58.40
37806;DHT22;25082;50.870;0.022;2023-06-14T06:17:44;22.10;58.40
37806;DHT22;25082;50.870;0.022;2023-06-14T06:20:10;22.10;58.50
37806;DHT22;25082;50.870;0.022;2023-06-14T06:22:37;22.10;58.50
37806;DHT22;25082;50.870;0.022;2023-06-14T06:25:03;22.10;58.50
37806;DHT22;25082;50.870;0.022;2023-06-14T06:27:29;22.10;58.50
37806;DHT22;25082;50.870;0.022;2023-06-14T06:29:55;22.10;58.60
37806;DHT22;25082;50.870;0.022;2023-06-14T06:32:21;22.10;58.60
37806;DHT22;25082;50.870;0.022;2023-06-14T06:34:47;22.00;58.60
37806;DHT22;25082;50.870;0.022;2023-06-14T06:37:13;22.10;58.70
37806;DHT22;25082;50.870;0.022;2023-06-14T06:39:39;22.10;58.70
37806;DHT22;25082;50.870;0.022;2023-06-14T06:42:05;22.00;58.70
37806;DHT22;25082;50.870;0.022;2023-06-14T06:44:32;22.00;58.70
37806;DHT22;25082;50.870;0.022;2023-06-14T06:46:58;22.00;58.70
37806;DHT22;25082;50.870;0.022;2023-06-14T06:49:24;22.00;58.70
37806;DHT22;25082;50.870;0.022;2023-06-14T06:52:08;22.00;58.80
37806;DHT22;25082;50.870;0.022;2023-06-14T06:54:34;22.00;58.80
37806;DHT22;25082;50.870;0.022;2023-06-14T06:57:00;22.00;58.80
37806;DHT22;25082;50.870;0.022;2023-06-14T06:59:27;22.10;58.90
37806;DHT22;25082;50.870;0.022;2023-06-14T07:01:53;22.00;58.90
37806;DHT22;25082;50.870;0.022;2023-06-14T07:04:19;22.00;59.00
37806;DHT22;25082;50.870;0.022;2023-06-14T07:06:46;22.00;58.90
37806;DHT22;25082;50.870;0.022;2023-06-14T07:09:12;22.00;59.00
37806;DHT22;25082;50.870;0.022;2023-06-14T07:11:39;22.00;59.00
37806;DHT22;25082;50.870;0.022;2023-06-14T07:14:06;22.00;59.10
37806;DHT22;25082;50.870;0.022;2023-06-14T07:16:32;22.00;59.10
37806;DHT22;25082;50.870;0.022;2023-06-14T07:18:57;22.00;59.10
37806;DHT22;25082;50.870;0.022;2023-06-14T07:21:23;22.00;59.10
37806;DHT22;25082;50.870;0.022;2023-06-14T07:23:52;22.00;59.10
37806;DHT22;25082;50.870;0.022;2023-06-14T07:26:17;22.00;59.10
37806;DHT22;25082;50.870;0.022;2023-06-14T07:28:43;22.00;59.20
37806;DHT22;25082;50.870;0.022;2023-06-14T07:31:10;22.00;59.20
37806;DHT22;25082;50.870;0.022;2023-06-14T07:33:36;22.00;59.20
37806;DHT22;25082;50.870;0.022;2023-06-14T07:36:02;22.00;59.30
37806;DHT22;25082;50.870;0.022;2023-06-14T07:38:28;22.00;59.30
37806;DHT22;25082;50.870;0.022;2023-06-14T07:40:54;22.00;59.30
37806;DHT22;25082;50.870;0.022;2023-06-14T07:43:20;22.00;59.30
37806;DHT22;25082;50.870;0.022;2023-06-14T07:45:45;22.00;59.30
37806;DHT22;25082;50.870;0.022;2023-06-14T07:48:11;22.00;59.30
37806;DHT22;25082;50.870;0.022;2023-06-14T07:50:37;22.00;59.40
37806;DHT22;25082;50.870;0.022;2023-06-14T07:53:03;22.00;59.50
37806;DHT22;25082;50.870;0.022;2023-06-14T07:55:28;22.00;59.40
37806;DHT22;25082;50.870;0.022;2023-06-14T07:57:54;22.00;59.40
37806;DHT22;25082;50.870;0.022;2023-06-14T08:00:20;22.00;59.40
37806;DHT22;25082;50.870;0.022;2023-06-14T08:02:46;22.00;59.50
37806;DHT22;25082;50.870;0.022;2023-06-14T08:05:12;22.00;59.50
37806;DHT22;25082;50.870;0.022;2023-06-14T08:07:39;22.00;59.50
37806;DHT22;25082;50.870;0.022;2023-06-14T08:10:06;22.00;59.50
37806;DHT22;25082;50.870;0.022;2023-06-14T08:12:32;22.00;59.50
37806;DHT22;25082;50.870;0.022;2023-06-14T08:14:59;22.00;59.50
37806;DHT22;25082;50.870;0.022;2023-06-14T08:17:25;22.00;59.50
37806;DHT22;25082;50.870;0.022;2023-06-14T08:19:52;22.00;59.50
37806;DHT22;25082;50.870;0.022;2023-06-14T08:22:20;22.00;59.60
37806;DHT22;25082;50.870;0.022;2023-06-14T08:24:47;22.00;59.50
37806;DHT22;25082;50.870;0.022;2023-06-14T08:27:13;22.00;59.50
37806;DHT22;25082;50.870;0.022;2023-06-14T08:29:39;22.00;59.60
37806;DHT22;25082;50.870;0.022;2023-06-14T08:32:06;22.00;59.60
37806;DHT22;25082;50.870;0.022;2023-06-14T08:34:32;22.10;59.60
37806;DHT22;25082;50.870;0.022;2023-06-14T08:36:58;22.10;59.70
37806;DHT22;25082;50.870;0.022;2023-06-14T08:39:24;22.10;59.70
37806;DHT22;25082;50.870;0.022;2023-06-14T08:41:50;22.10;59.70
37806;DHT22;25082;50.870;0.022;2023-06-14T08:44:18;22.10;59.70
37806;DHT22;25082;50.870;0.022;2023-06-14T08:46:44;22.10;59.80
37806;DHT22;25082;50.870;0.022;2023-06-14T08:49:16;22.10;59.80
37806;DHT22;25082;50.870;0.022;2023-06-14T08:51:43;22.10;59.80
37806;DHT22;25082;50.870;0.022;2023-06-14T08:54:11;22.10;59.90
37806;DHT22;25082;50.870;0.022;2023-06-14T08:56:38;22.10;59.90
37806;DHT22;25082;50.870;0.022;2023-06-14T08:59:04;22.10;59.90
37806;DHT22;25082;50.870;0.022;2023-06-14T09:01:36;22.10;60.00
37806;DHT22;25082;50.870;0.022;2023-06-14T09:04:02;22.10;60.00
37806;DHT22;25082;50.870;0.022;2023-06-14T09:06:28;22.10;60.00
37806;DHT22;25082;50.870;0.022;2023-06-14T09:08:55;22.10;60.10
37806;DHT22;25082;50.870;0.022;2023-06-14T09:11:23;22.10;60.10
37806;DHT22;25082;50.870;0.022;2023-06-14T09:13:50;22.10;60.10
37806;DHT22;25082;50.870;0.022;2023-06-14T09:16:16;22.10;60.10
37806;DHT22;25082;50.870;0.022;2023-06-14T09:18:46;22.10;60.10
37806;DHT22;25082;50.870;0.022;2023-06-14T09:21:16;22.10;60.10
37806;DHT22;25082;50.870;0.022;2023-06-14T09:23:46;22.10;60.20
37806;DHT22;25082;50.870;0.022;2023-06-14T09:26:17;22.10;60.10
37806;DHT22;25082;50.870;0.022;2023-06-14T09:28:49;22.10;60.20
37806;DHT22;25082;50.870;0.022;2023-06-14T09:31:19;22.10;60.20
37806;DHT22;25082;50.870;0.022;2023-06-14T09:33:47;22.10;60.20
37806;DHT22;25082;50.870;0.022;2023-06-14T09:36:23;22.10;60.20
37806;DHT22;25082;50.870;0.022;2023-06-14T09:41:18;22.10;60.20
37806;DHT22;25082;50.870;0.022;2023-06-14T09:43:46;22.20;60.30
37806;DHT22;25082;50.870;0.022;2023-06-14T09:46:12;22.20;60.30
37806;DHT22;25082;50.870;0.022;2023-06-14T09:48:41;22.20;60.30
37806;DHT22;25082;50.870;0.022;2023-06-14T09:51:10;22.10;60.30
37806;DHT22;25082;50.870;0.022;2023-06-14T09:53:41;22.20;60.30
37806;DHT22;25082;50.870;0.022;2023-06-14T09:56:08;22.20;60.30
37806;DHT22;25082;50.870;0.022;2023-06-14T09:58:37;22.20;60.30
37806;DHT22;25082;50.870;0.022;2023-06-14T10:01:07;22.20;60.40
37806;DHT22;25082;50.870;0.022;2023-06-14T10:03:34;22.20;60.40
37806;DHT22;25082;50.870;0.022;2023-06-14T10:06:03;22.20;60.40
37806;DHT22;25082;50.870;0.022;2023-06-14T10:08:36;22.20;60.40
37806;DHT22;25082;50.870;0.022;2023-06-14T10:11:06;22.20;60.40
37806;DHT22;25082;50.870;0.022;2023-06-14T10:13:32;22.20;60.40
37806;DHT22;25082;50.870;0.022;2023-06-14T10:16:17;22.20;60.30
37806;DHT22;25082;50.870;0.022;2023-06-14T10:18:49;22.20;60.40
37806;DHT22;25082;50.870;0.022;2023-06-14T10:21:36;22.20;60.30
37806;DHT22;25082;50.870;0.022;2023-06-14T10:24:06;22.20;60.20
37806;DHT22;25082;50.870;0.022;2023-06-14T10:26:33;22.30;60.30
37806;DHT22;25082;50.870;0.022;2023-06-14T10:29:08;22.30;60.30
37806;DHT22;25082;50.870;0.022;2023-06-14T10:31:44;22.30;60.40
37806;DHT22;25082;50.870;0.022;2023-06-14T10:34:11;22.30;60.10
37806;DHT22;25082;50.870;0.022;2023-06-14T10:36:37;22.30;60.70
37806;DHT22;25082;50.870;0.022;2023-06-14T10:41:35;22.30;60.20
37806;DHT22;25082;50.870;0.022;2023-06-14T10:46:40;22.40;60.30
37806;DHT22;25082;50.870;0.022;2023-06-14T10:49:11;22.40;60.30
37806;DHT22;25082;50.870;0.022;2023-06-14T10:51:42;22.40;60.20
37806;DHT22;25082;50.870;0.022;2023-06-14T10:54:15;22.40;60.00
37806;DHT22;25082;50.870;0.022;2023-06-14T10:56:51;22.50;59.90
37806;DHT22;25082;50.870;0.022;2023-06-14T10:59:19;22.40;59.60
37806;DHT22;25082;50.870;0.022;2023-06-14T11:04:11;22.50;59.10
37806;DHT22;25082;50.870;0.022;2023-06-14T11:07:06;22.50;58.80
37806;DHT22;25082;50.870;0.022;2023-06-14T11:12:24;22.50;58.00
37806;DHT22;25082;50.870;0.022;2023-06-14T11:14:52;22.50;57.00
37806;DHT22;25082;50.870;0.022;2023-06-14T11:17:17;22.50;57.30
37806;DHT22;25082;50.870;0.022;2023-06-14T11:19:44;22.60;57.10
37806;DHT22;25082;50.870;0.022;2023-06-14T11:22:10;22.60;57.20
37806;DHT22;25082;50.870;0.022;2023-06-14T11:24:35;22.60;57.50
37806;DHT22;25082;50.870;0.022;2023-06-14T11:27:01;22.60;58.30
37806;DHT22;25082;50.870;0.022;2023-06-14T11:29:29;22.60;57.50
37806;DHT22;25082;50.870;0.022;2023-06-14T11:31:56;22.70;55.60
37806;DHT22;25082;50.870;0.022;2023-06-14T11:34:21;22.70;56.00
37806;DHT22;25082;50.870;0.022;2023-06-14T11:36:47;22.70;56.40
37806;DHT22;25082;50.870;0.022;2023-06-14T11:39:13;22.70;56.60
37806;DHT22;25082;50.870;0.022;2023-06-14T11:41:44;22.70;56.40
37806;DHT22;25082;50.870;0.022;2023-06-14T11:44:11;22.70;56.40
37806;DHT22;25082;50.870;0.022;2023-06-14T11:46:37;22.70;56.30
37806;DHT22;25082;50.870;0.022;2023-06-14T11:49:04;22.70;54.90
37806;DHT22;25082;50.870;0.022;2023-06-14T11:51:34;22.80;54.60
37806;DHT22;25082;50.870;0.022;2023-06-14T11:54:01;22.80;54.20
37806;DHT22;25082;50.870;0.022;2023-06-14T11:56:28;22.80;54.80
37806;DHT22;25082;50.870;0.022;2023-06-14T11:58:54;22.80;55.30
37806;DHT22;25082;50.870;0.022;2023-06-14T12:01:24;22.80;55.40
37806;DHT22;25082;50.870;0.022;2023-06-14T12:03:53;22.80;56.00
37806;DHT22;25082;50.870;0.022;2023-06-14T12:06:30;22.80;56.20
37806;DHT22;25082;50.870;0.022;2023-06-14T12:08:58;22.90;55.70
37806;DHT22;25082;50.870;0.022;2023-06-14T12:11:27;22.90;56.10
37806;DHT22;25082;50.870;0.022;2023-06-14T12:13:53;22.90;56.30
37806;DHT22;25082;50.870;0.022;2023-06-14T12:16:19;23.00;55.10
37806;DHT22;25082;50.870;0.022;2023-06-14T12:18:45;23.00;55.30
37806;DHT22;25082;50.870;0.022;2023-06-14T12:21:11;23.00;56.20
37806;DHT22;25082;50.870;0.022;2023-06-14T12:23:46;23.00;56.70
37806;DHT22;25082;50.870;0.022;2023-06-14T12:26:13;23.00;56.90
37806;DHT22;25082;50.870;0.022;2023-06-14T12:28:40;23.00;57.20
37806;DHT22;25082;50.870;0.022;2023-06-14T12:31:11;23.00;57.40
37806;DHT22;25082;50.870;0.022;2023-06-14T12:33:38;23.00;57.40
37806;DHT22;25082;50.870;0.022;2023-06-14T12:36:04;23.00;57.70
37806;DHT22;25082;50.870;0.022;2023-06-14T12:38:32;23.00;57.80
37806;DHT22;25082;50.870;0.022;2023-06-14T12:40:57;23.00;57.90
37806;DHT22;25082;50.870;0.022;2023-06-14T12:43:24;23.00;57.90
37806;DHT22;25082;50.870;0.022;2023-06-14T12:45:49;23.00;58.10
37806;DHT22;25082;50.870;0.022;2023-06-14T12:48:15;23.00;58.30
37806;DHT22;25082;50.870;0.022;2023-06-14T12:50:41;23.00;58.40
37806;DHT22;25082;50.870;0.022;2023-06-14T12:53:07;23.00;58.60
37806;DHT22;25082;50.870;0.022;2023-06-14T12:55:33;23.00;58.70
37806;DHT22;25082;50.870;0.022;2023-06-14T12:57:59;23.00;58.70
37806;DHT22;25082;50.870;0.022;2023-06-14T13:00:24;23.00;58.80
37806;DHT22;25082;50.870;0.022;2023-06-14T13:02:55;23.00;59.00
37806;DHT22;25082;50.870;0.022;2023-06-14T13:05:22;23.00;59.00
37806;DHT22;25082;50.870;0.022;2023-06-14T13:07:47;23.00;59.20
37806;DHT22;25082;50.870;0.022;2023-06-14T13:10:13;23.00;59.20
37806;DHT22;25082;50.870;0.022;2023-06-14T13:12:39;23.00;59.30
37806;DHT22;25082;50.870;0.022;2023-06-14T13:15:06;23.10;59.30
37806;DHT22;25082;50.870;0.022;2023-06-14T13:17:33;23.00;59.50
37806;DHT22;25082;50.870;0.022;2023-06-14T13:20:05;23.10;59.60
37806;DHT22;25082;50.870;0.022;2023-06-14T13:22:31;23.10;59.60
37806;DHT22;25082;50.870;0.022;2023-06-14T13:24:56;23.00;59.50
37806;DHT22;25082;50.870;0.022;2023-06-14T13:27:22;23.00;59.70
37806;DHT22;25082;50.870;0.022;2023-06-14T13:29:49;23.10;59.70
37806;DHT22;25082;50.870;0.022;2023-06-14T13:32:15;23.10;59.80
37806;DHT22;25082;50.870;0.022;2023-06-14T13:34:41;23.00;59.70
37806;DHT22;25082;50.870;0.022;2023-06-14T13:37:07;23.10;59.90
37806;DHT22;25082;50.870;0.022;2023-06-14T13:39:33;23.10;59.80
37806;DHT22;25082;50.870;0.022;2023-06-14T13:41:58;23.10;59.90
37806;DHT22;25082;50.870;0.022;2023-06-14T13:44:24;23.10;60.00
37806;DHT22;25082;50.870;0.022;2023-06-14T13:46:50;23.10;60.00
37806;DHT22;25082;50.870;0.022;2023-06-14T13:49:16;23.10;59.80
37806;DHT22;25082;50.870;0.022;2023-06-14T13:51:42;23.10;60.00
37806;DHT22;25082;50.870;0.022;2023-06-14T13:54:08;23.10;59.90
37806;DHT22;25082;50.870;0.022;2023-06-14T13:56:34;23.10;59.90
37806;DHT22;25082;50.870;0.022;2023-06-14T13:59:00;23.10;59.80
37806;DHT22;25082;50.870;0.022;2023-06-14T14:01:26;23.10;59.90
37806;DHT22;25082;50.870;0.022;2023-06-14T14:03:54;23.10;59.90
37806;DHT22;25082;50.870;0.022;2023-06-14T14:06:19;23.10;59.90
37806;DHT22;25082;50.870;0.022;2023-06-14T14:08:46;23.10;60.00
37806;DHT22;25082;50.870;0.022;2023-06-14T14:11:11;23.10;60.00
37806;DHT22;25082;50.870;0.022;2023-06-14T14:13:38;23.10;60.00
37806;DHT22;25082;50.870;0.022;2023-06-14T14:16:05;23.10;60.00
37806;DHT22;25082;50.870;0.022;2023-06-14T14:18:31;23.10;60.00
37806;DHT22;25082;50.870;0.022;2023-06-14T14:20:58;23.10;60.00
37806;DHT22;25082;50.870;0.022;2023-06-14T14:23:24;23.10;60.10
37806;DHT22;25082;50.870;0.022;2023-06-14T14:25:50;23.10;60.20
37806;DHT22;25082;50.870;0.022;2023-06-14T14:28:15;23.10;60.20
37806;DHT22;25082;50.870;0.022;2023-06-14T14:30:44;23.10;60.30
37806;DHT22;25082;50.870;0.022;2023-06-14T14:33:10;23.10;60.40
37806;DHT22;25082;50.870;0.022;2023-06-14T14:35:42;23.10;60.40
37806;DHT22;25082;50.870;0.022;2023-06-14T14:38:08;23.10;60.20
37806;DHT22;25082;50.870;0.022;2023-06-14T14:40:34;23.20;60.50
37806;DHT22;25082;50.870;0.022;2023-06-14T14:43:03;23.20;60.50
37806;DHT22;25082;50.870;0.022;2023-06-14T14:45:28;23.10;60.40
37806;DHT22;25082;50.870;0.022;2023-06-14T14:47:54;23.20;60.70
37806;DHT22;25082;50.870;0.022;2023-06-14T14:50:20;23.20;60.70
37806;DHT22;25082;50.870;0.022;2023-06-14T14:52:46;23.20;60.60
37806;DHT22;25082;50.870;0.022;2023-06-14T14:55:11;23.20;58.30
37806;DHT22;25082;50.870;0.022;2023-06-14T14:57:37;23.30;56.80
37806;DHT22;25082;50.870;0.022;2023-06-14T15:00:04;23.30;55.60
37806;DHT22;25082;50.870;0.022;2023-06-14T15:02:31;23.30;55.10
37806;DHT22;25082;50.870;0.022;2023-06-14T15:04:56;23.40;53.10
37806;DHT22;25082;50.870;0.022;2023-06-14T15:07:27;23.40;52.70
37806;DHT22;25082;50.870;0.022;2023-06-14T15:09:53;23.40;53.00
37806;DHT22;25082;50.870;0.022;2023-06-14T15:12:19;23.40;52.90
37806;DHT22;25082;50.870;0.022;2023-06-14T15:14:45;23.50;53.00
37806;DHT22;25082;50.870;0.022;2023-06-14T15:17:11;23.50;52.70
37806;DHT22;25082;50.870;0.022;2023-06-14T15:19:37;23.60;52.30
37806;DHT22;25082;50.870;0.022;2023-06-14T15:22:03;23.60;52.50
37806;DHT22;25082;50.870;0.022;2023-06-14T15:24:28;23.60;51.80
37806;DHT22;25082;50.870;0.022;2023-06-14T15:26:56;23.60;51.70
37806;DHT22;25082;50.870;0.022;2023-06-14T15:29:21;23.60;51.50
37806;DHT22;25082;50.870;0.022;2023-06-14T15:31:47;23.70;52.30
37806;DHT22;25082;50.870;0.022;2023-06-14T15:34:14;23.70;52.10
37806;DHT22;25082;50.870;0.022;2023-06-14T15:36:40;23.70;52.50
37806;DHT22;25082;50.870;0.022;2023-06-14T15:39:05;23.70;52.00
37806;DHT22;25082;50.870;0.022;2023-06-14T15:41:31;23.70;52.40
37806;DHT22;25082;50.870;0.022;2023-06-14T15:43:57;23.70;51.50